Chicago, Illinois
Traffic Map
Current Weather Conditions
Chicago, Illinois
Overcast Light Rain
Overcast

Feels Like: -3°
Wind Chill: -3° Ceiling: 8000
Heat Index: Visibility: 10mi
Dew Point: -4° Wind: 22mph
Humidity: 62% Direction: 190° (S)
Pressure: 29.95in Gusts: 32mph
Raw Report DataKMDW 291653Z 19019G28KT 10SM -RA FEW044 BKN080 OVC210 03/M04 A2995 RMK AO2 PK WND 19029/1602 RAB05UPB50E51 SLP152 P0003 T00281039
Traffic Incident Summary
Active as of:
Severity:
Category:
InformationThere was an issue retrieving the traffic information for this location. Please try a different location or try again shortly.
Advertisements
Track Severe Weather on mobile